createdAt,value
2023-02-09T00:00:14.280Z,-1.84
2023-02-09T00:01:18.604Z,-1.84
2023-02-09T00:02:20.473Z,-1.84
2023-02-09T00:03:22.454Z,-1.87
2023-02-09T00:04:24.527Z,-1.90
2023-02-09T00:05:26.362Z,-1.94
2023-02-09T00:06:30.148Z,-1.90
2023-02-09T00:07:32.109Z,-1.90
2023-02-09T00:08:34.320Z,-1.90
2023-02-09T00:09:36.284Z,-1.91
2023-02-09T00:10:39.302Z,-1.88
2023-02-09T00:11:59.775Z,-1.82
2023-02-09T00:13:19.862Z,-1.75
2023-02-09T00:14:22.296Z,-1.74
2023-02-09T00:15:24.572Z,-1.72
2023-02-09T00:16:26.512Z,-1.68
2023-02-09T00:17:28.395Z,-1.66
2023-02-09T00:18:31.695Z,-1.64
2023-02-09T00:19:33.550Z,-1.64
2023-02-09T00:20:35.393Z,-1.62
2023-02-09T00:21:37.263Z,-1.64
2023-02-09T00:22:39.111Z,-1.64
2023-02-09T00:23:41.704Z,-1.66
2023-02-09T00:24:43.715Z,-1.66
2023-02-09T00:25:45.645Z,-1.73
2023-02-09T00:26:47.712Z,-1.75
2023-02-09T00:27:49.597Z,-1.76
2023-02-09T00:28:51.430Z,-1.73
2023-02-09T00:29:53.392Z,-1.75
2023-02-09T00:30:55.574Z,-1.77
2023-02-09T00:31:57.461Z,-1.73
2023-02-09T00:32:59.432Z,-1.79
2023-02-09T00:34:01.661Z,-1.95
2023-02-09T00:35:03.708Z,-1.95
2023-02-09T00:36:09.220Z,-1.95
2023-02-09T00:37:11.215Z,-1.91
2023-02-09T00:38:13.363Z,-1.85
2023-02-09T00:39:15.218Z,-1.81
2023-02-09T00:40:17.173Z,-1.82
2023-02-09T00:41:39.671Z,-1.91
2023-02-09T00:42:41.633Z,-1.95
2023-02-09T00:43:43.714Z,-1.98
2023-02-09T00:44:46.264Z,-1.97
2023-02-09T00:45:48.176Z,-1.95
2023-02-09T00:46:50.086Z,-1.96
2023-02-09T00:47:52.039Z,-1.93
2023-02-09T00:48:53.860Z,-1.89
2023-02-09T00:49:55.701Z,-1.87
2023-02-09T00:50:57.562Z,-1.86
2023-02-09T00:51:59.477Z,-1.81
2023-02-09T00:53:01.341Z,-1.79
2023-02-09T00:54:03.653Z,-1.77
2023-02-09T00:55:06.249Z,-1.76
2023-02-09T00:56:08.088Z,-1.72
2023-02-09T00:57:10.036Z,-1.68
2023-02-09T00:58:11.893Z,-1.68
2023-02-09T00:59:13.809Z,-1.75
2023-02-09T01:00:16.323Z,-1.77
2023-02-09T01:01:18.247Z,-1.82
2023-02-09T01:02:20.183Z,-1.87
2023-02-09T01:03:22.062Z,-1.86
2023-02-09T01:04:23.908Z,-1.84
2023-02-09T01:05:25.888Z,-1.83
2023-02-09T01:06:27.719Z,-1.78
2023-02-09T01:07:29.569Z,-1.75
2023-02-09T01:08:31.474Z,-1.74
2023-02-09T01:09:33.269Z,-1.72
2023-02-09T01:10:35.224Z,-1.69
2023-02-09T01:11:37.079Z,-1.70
2023-02-09T01:12:41.048Z,-1.76
2023-02-09T01:13:43.387Z,-1.76
2023-02-09T01:14:45.192Z,-1.73
2023-02-09T01:15:47.021Z,-1.69
2023-02-09T01:16:48.897Z,-1.68
2023-02-09T01:17:50.983Z,-1.71
2023-02-09T01:18:52.873Z,-1.72
2023-02-09T01:19:55.006Z,-1.76
2023-02-09T01:20:56.865Z,-1.79
2023-02-09T01:21:58.688Z,-1.77
2023-02-09T01:23:00.668Z,-1.74
2023-02-09T01:24:02.597Z,-1.72
2023-02-09T01:25:05.180Z,-1.69
2023-02-09T01:26:09.564Z,-1.67
2023-02-09T01:27:11.432Z,-1.69
2023-02-09T01:28:13.340Z,-1.71
2023-02-09T01:29:16.632Z,-1.68
2023-02-09T01:30:18.502Z,-1.69
2023-02-09T01:31:31.124Z,-1.78
2023-02-09T01:32:33.061Z,-1.83
2023-02-09T01:33:35.025Z,-1.90
2023-02-09T01:34:36.833Z,-1.88
2023-02-09T01:35:40.850Z,-1.83
2023-02-09T01:36:43.152Z,-1.78
2023-02-09T01:37:45.034Z,-1.75
2023-02-09T01:38:46.924Z,-1.71
2023-02-09T01:39:48.880Z,-1.72
2023-02-09T01:40:50.824Z,-1.72
2023-02-09T01:41:52.627Z,-1.71
2023-02-09T01:42:54.507Z,-1.83
2023-02-09T01:44:04.176Z,-1.89
2023-02-09T01:45:08.201Z,-1.86
2023-02-09T01:46:10.082Z,-1.78
2023-02-09T01:47:15.508Z,-1.77
2023-02-09T01:48:19.846Z,-1.76
2023-02-09T01:49:22.815Z,-1.74
2023-02-09T01:50:25.094Z,-1.70
2023-02-09T01:51:27.872Z,-1.76
2023-02-09T01:52:30.691Z,-1.78
2023-02-09T01:53:32.569Z,-1.80
2023-02-09T01:54:39.735Z,-1.79
2023-02-09T01:55:46.137Z,-1.85
2023-02-09T01:56:51.325Z,-1.92
2023-02-09T01:57:56.458Z,-1.91
2023-02-09T01:58:58.875Z,-1.88
2023-02-09T02:00:11.519Z,-1.87
2023-02-09T02:01:13.867Z,-1.90
2023-02-09T02:02:16.013Z,-1.87
2023-02-09T02:03:20.214Z,-1.86
2023-02-09T02:04:22.440Z,-1.81
2023-02-09T02:05:25.694Z,-1.78
2023-02-09T02:06:27.642Z,-1.79
2023-02-09T02:07:41.666Z,-1.78
2023-02-09T02:08:43.529Z,-1.75
2023-02-09T02:09:46.263Z,-1.72
2023-02-09T02:10:48.151Z,-1.72
2023-02-09T02:11:50.975Z,-1.72
2023-02-09T02:12:54.603Z,-1.73
2023-02-09T02:13:57.303Z,-1.73
2023-02-09T02:14:59.157Z,-1.73
2023-02-09T02:16:19.256Z,-1.74
2023-02-09T02:17:24.156Z,-1.76
2023-02-09T02:18:52.253Z,-1.73
2023-02-09T02:19:54.091Z,-1.73
2023-02-09T02:21:14.335Z,-1.75
2023-02-09T02:22:22.275Z,-1.75
2023-02-09T02:23:26.868Z,-1.70
2023-02-09T02:24:37.888Z,-1.68
2023-02-09T02:25:42.795Z,-1.68
2023-02-09T02:26:58.812Z,-1.72
2023-02-09T02:28:06.808Z,-1.71
2023-02-09T02:29:20.907Z,-1.69
2023-02-09T02:30:41.434Z,-1.68
2023-02-09T02:31:46.381Z,-1.64
2023-02-09T02:32:51.255Z,-1.63
2023-02-09T02:34:25.604Z,-1.67
2023-02-09T02:35:39.455Z,-1.64
2023-02-09T02:36:52.386Z,-1.64
2023-02-09T02:38:04.148Z,-1.64
2023-02-09T02:39:05.915Z,-1.65
2023-02-09T02:40:20.928Z,-1.62
2023-02-09T02:41:51.221Z,-1.67
2023-02-09T02:43:00.528Z,-1.68
2023-02-09T02:44:13.977Z,-1.70
2023-02-09T02:45:21.858Z,-1.77
2023-02-09T02:46:40.057Z,-1.81
2023-02-09T02:47:44.952Z,-1.78
2023-02-09T02:49:09.933Z,-1.73
2023-02-09T02:50:16.582Z,-1.67
2023-02-09T02:51:36.519Z,-1.75
2023-02-09T02:52:40.050Z,-1.78
2023-02-09T02:53:44.258Z,-1.77
2023-02-09T02:55:06.385Z,-1.78
2023-02-09T02:56:14.496Z,-1.83
2023-02-09T02:57:18.251Z,-1.86
2023-02-09T02:58:22.022Z,-1.85
2023-02-09T02:59:29.326Z,-1.82
2023-02-09T03:00:34.956Z,-1.78
2023-02-09T03:01:43.641Z,-1.74
2023-02-09T03:02:50.580Z,-1.73
2023-02-09T03:03:53.909Z,-1.70
2023-02-09T03:04:57.016Z,-1.71
2023-02-09T03:05:59.931Z,-1.70
2023-02-09T03:07:04.933Z,-1.73
2023-02-09T03:08:06.839Z,-1.72
2023-02-09T03:09:08.689Z,-1.73
2023-02-09T03:10:24.618Z,-1.74
2023-02-09T03:11:34.744Z,-1.73
2023-02-09T03:12:52.021Z,-1.74
2023-02-09T03:13:56.610Z,-1.78
2023-02-09T03:15:18.693Z,-1.79
2023-02-09T03:16:29.650Z,-1.77
2023-02-09T03:17:41.745Z,-1.83
2023-02-09T03:18:49.686Z,-2.01
2023-02-09T03:19:51.479Z,-1.94
2023-02-09T03:20:59.329Z,-1.84
2023-02-09T03:22:07.216Z,-1.83
2023-02-09T03:23:13.800Z,-1.84
2023-02-09T03:24:20.973Z,-1.82
2023-02-09T03:25:22.823Z,-1.76
2023-02-09T03:26:31.477Z,-1.73
2023-02-09T03:27:41.023Z,-1.70
2023-02-09T03:28:44.206Z,-1.72
2023-02-09T03:29:48.320Z,-1.71
2023-02-09T03:30:50.655Z,-1.69
2023-02-09T03:31:52.657Z,-1.65
2023-02-09T03:32:56.710Z,-1.62
2023-02-09T03:33:58.815Z,-1.65
2023-02-09T03:35:00.663Z,-1.65
2023-02-09T03:36:03.151Z,-1.73
2023-02-09T03:37:05.111Z,-1.75
2023-02-09T03:38:07.590Z,-1.73
2023-02-09T03:39:09.561Z,-1.68
2023-02-09T03:40:11.604Z,-1.67
2023-02-09T03:41:13.522Z,-1.68
2023-02-09T03:42:16.164Z,-1.74
2023-02-09T03:43:18.089Z,-1.76
2023-02-09T03:44:28.861Z,-1.78
2023-02-09T03:45:30.815Z,-1.81
2023-02-09T03:46:34.006Z,-1.77
2023-02-09T03:47:36.028Z,-1.73
2023-02-09T03:48:38.298Z,-1.72
2023-02-09T03:49:41.414Z,-1.70
2023-02-09T03:50:43.690Z,-1.69
2023-02-09T03:51:45.865Z,-1.69
2023-02-09T03:52:47.715Z,-1.72
2023-02-09T03:53:49.684Z,-1.72
2023-02-09T03:54:51.719Z,-1.69
2023-02-09T03:55:53.611Z,-1.64
2023-02-09T03:56:55.649Z,-1.65
2023-02-09T03:57:57.554Z,-1.69
2023-02-09T03:58:59.477Z,-1.70
2023-02-09T04:00:01.982Z,-1.71
2023-02-09T04:01:08.051Z,-1.71
2023-02-09T04:02:10.583Z,-1.68
2023-02-09T04:03:12.433Z,-1.64
2023-02-09T04:04:14.368Z,-1.66
2023-02-09T04:05:16.439Z,-1.74
2023-02-09T04:06:19.198Z,-1.77
2023-02-09T04:07:20.993Z,-1.79
2023-02-09T04:08:22.794Z,-1.76
2023-02-09T04:09:25.281Z,-1.76
2023-02-09T04:10:27.216Z,-1.74
2023-02-09T04:11:29.144Z,-1.73
2023-02-09T04:12:31.014Z,-1.75
2023-02-09T04:13:32.870Z,-1.76
2023-02-09T04:14:34.765Z,-1.78
2023-02-09T04:15:38.812Z,-1.82
2023-02-09T04:16:40.760Z,-1.86
2023-02-09T04:17:42.645Z,-1.87
2023-02-09T04:18:44.979Z,-1.88
2023-02-09T04:19:46.890Z,-1.92
2023-02-09T04:20:48.777Z,-1.91
2023-02-09T04:21:50.619Z,-1.89
2023-02-09T04:22:52.543Z,-1.87
2023-02-09T04:23:54.477Z,-1.88
2023-02-09T04:24:56.400Z,-1.84
2023-02-09T04:25:58.210Z,-1.85
2023-02-09T04:27:00.170Z,-1.85
2023-02-09T04:28:02.128Z,-1.83
2023-02-09T04:29:04.710Z,-1.87
2023-02-09T04:30:06.945Z,-1.98
2023-02-09T04:31:08.860Z,-2.07
2023-02-09T04:32:10.811Z,-2.10
2023-02-09T04:33:12.703Z,-2.04
2023-02-09T04:34:14.644Z,-2.01
2023-02-09T04:35:16.651Z,-1.97
2023-02-09T04:36:18.471Z,-2.02
2023-02-09T04:37:20.358Z,-2.05
2023-02-09T04:38:22.671Z,-2.02
2023-02-09T04:39:24.532Z,-2.04
2023-02-09T04:40:26.419Z,-2.01
2023-02-09T04:41:28.413Z,-1.98
2023-02-09T04:42:32.201Z,-1.95
2023-02-09T04:43:34.475Z,-2.03
2023-02-09T04:44:36.286Z,-2.06
2023-02-09T04:45:39.166Z,-2.02
2023-02-09T04:46:41.170Z,-1.99
2023-02-09T04:47:43.136Z,-1.97
2023-02-09T04:48:45.657Z,-1.92
2023-02-09T04:49:47.557Z,-1.93
2023-02-09T04:50:49.920Z,-1.89
2023-02-09T04:51:51.854Z,-1.88
2023-02-09T04:52:53.682Z,-1.93
2023-02-09T04:53:55.523Z,-1.90
2023-02-09T04:54:57.462Z,-1.88
2023-02-09T04:55:59.379Z,-1.92
2023-02-09T04:57:19.712Z,-1.94
2023-02-09T04:58:40.420Z,-1.91
2023-02-09T04:59:45.188Z,-1.99
2023-02-09T05:00:47.406Z,-2.03
2023-02-09T05:01:49.503Z,-2.01
2023-02-09T05:02:51.400Z,-1.97
2023-02-09T05:03:53.625Z,-1.96
2023-02-09T05:04:55.575Z,-1.92
2023-02-09T05:05:58.255Z,-1.95
2023-02-09T05:07:00.175Z,-1.93
2023-02-09T05:08:02.026Z,-1.88
2023-02-09T05:09:04.104Z,-1.85
2023-02-09T05:10:06.152Z,-1.85
2023-02-09T05:11:08.082Z,-1.86
2023-02-09T05:12:10.662Z,-1.85
2023-02-09T05:13:12.477Z,-1.88
2023-02-09T05:14:14.419Z,-1.82
2023-02-09T05:15:16.250Z,-1.83
2023-02-09T05:16:18.194Z,-1.83
2023-02-09T05:17:21.535Z,-2.01
2023-02-09T05:18:25.135Z,-2.06
2023-02-09T05:19:27.056Z,-2.07
2023-02-09T05:20:28.919Z,-2.03
2023-02-09T05:21:30.762Z,-2.00
2023-02-09T05:22:32.754Z,-2.08
2023-02-09T05:23:34.637Z,-2.09
2023-02-09T05:24:36.577Z,-2.09
2023-02-09T05:25:38.432Z,-2.05
2023-02-09T05:26:40.278Z,-2.04
2023-02-09T05:27:42.198Z,-2.05
2023-02-09T05:28:44.098Z,-2.07
2023-02-09T05:29:45.998Z,-2.11
2023-02-09T05:30:49.300Z,-2.13
2023-02-09T05:31:51.290Z,-2.08
2023-02-09T05:32:53.982Z,-2.10
2023-02-09T05:33:55.841Z,-2.09
2023-02-09T05:34:57.682Z,-2.13
2023-02-09T05:35:59.707Z,-2.09
2023-02-09T05:37:01.600Z,-2.07
2023-02-09T05:38:03.610Z,-2.04
2023-02-09T05:39:05.548Z,-2.04
2023-02-09T05:40:07.812Z,-2.02
2023-02-09T05:41:10.796Z,-2.03
2023-02-09T05:42:15.752Z,-1.97
2023-02-09T05:43:17.705Z,-1.94
2023-02-09T05:44:19.596Z,-1.92
2023-02-09T05:45:21.456Z,-1.91
2023-02-09T05:46:23.377Z,-1.94
2023-02-09T05:47:25.492Z,-1.90
2023-02-09T05:48:27.726Z,-1.87
2023-02-09T05:49:29.683Z,-1.90
2023-02-09T05:50:31.554Z,-1.98
2023-02-09T05:51:33.423Z,-2.07
2023-02-09T05:52:35.251Z,-2.05
2023-02-09T05:53:37.166Z,-2.05
2023-02-09T05:54:39.076Z,-2.04
2023-02-09T05:55:40.971Z,-2.00
2023-02-09T05:56:43.553Z,-1.93
2023-02-09T05:57:45.479Z,-1.90
2023-02-09T05:58:47.434Z,-1.88
2023-02-09T05:59:49.284Z,-1.88
2023-02-09T06:00:51.165Z,-1.90
2023-02-09T06:01:53.046Z,-1.95
2023-02-09T06:02:55.038Z,-1.93
2023-02-09T06:03:56.952Z,-1.88
2023-02-09T06:04:58.743Z,-1.88
2023-02-09T06:06:00.674Z,-1.95
2023-02-09T06:07:02.537Z,-2.01
2023-02-09T06:08:04.501Z,-2.07
2023-02-09T06:09:06.701Z,-2.09
2023-02-09T06:10:08.834Z,-2.08
2023-02-09T06:11:10.794Z,-2.09
2023-02-09T06:12:12.649Z,-2.10
2023-02-09T06:13:14.477Z,-2.08
2023-02-09T06:14:16.572Z,-2.03
2023-02-09T06:15:18.421Z,-2.03
2023-02-09T06:16:20.400Z,-2.03
2023-02-09T06:17:22.436Z,-2.00
2023-02-09T06:18:24.238Z,-2.05
2023-02-09T06:19:26.200Z,-2.13
2023-02-09T06:20:28.042Z,-2.10
2023-02-09T06:21:29.942Z,-2.09
2023-02-09T06:22:32.068Z,-2.07
2023-02-09T06:23:35.305Z,-2.07
2023-02-09T06:24:37.384Z,-2.07
2023-02-09T06:25:42.309Z,-2.07
2023-02-09T06:26:44.365Z,-2.04
2023-02-09T06:27:46.183Z,-2.06
2023-02-09T06:28:48.195Z,-2.05
2023-02-09T06:29:50.065Z,-2.02
2023-02-09T06:30:52.897Z,-2.00
2023-02-09T06:31:55.016Z,-1.98
2023-02-09T06:32:56.946Z,-2.02
2023-02-09T06:33:58.832Z,-2.05
2023-02-09T06:35:00.764Z,-2.07
2023-02-09T06:36:02.817Z,-2.02
2023-02-09T06:37:04.713Z,-1.98
2023-02-09T06:38:06.620Z,-2.01
2023-02-09T06:39:09.479Z,-2.01
2023-02-09T06:40:11.592Z,-1.98
2023-02-09T06:41:13.485Z,-1.98
2023-02-09T06:42:15.376Z,-1.99
2023-02-09T06:43:17.944Z,-1.99
2023-02-09T06:44:20.084Z,-2.02
2023-02-09T06:45:22.015Z,-1.99
2023-02-09T06:46:24.039Z,-1.97
2023-02-09T06:47:26.425Z,-1.98
2023-02-09T06:48:28.330Z,-2.03
2023-02-09T06:49:30.469Z,-2.07
2023-02-09T06:50:32.606Z,-2.02
2023-02-09T06:51:34.560Z,-2.00
2023-02-09T06:52:36.372Z,-1.96
2023-02-09T06:53:38.806Z,-1.95
2023-02-09T06:54:40.665Z,-1.96
2023-02-09T06:55:42.520Z,-1.99
2023-02-09T06:56:44.779Z,-1.99
2023-02-09T06:57:46.715Z,-2.02
2023-02-09T06:58:48.629Z,-2.18
2023-02-09T06:59:50.475Z,-2.27
2023-02-09T07:00:52.434Z,-2.30
2023-02-09T07:01:55.068Z,-2.34
2023-02-09T07:02:57.200Z,-2.37
2023-02-09T07:03:59.153Z,-2.34
2023-02-09T07:05:01.460Z,-2.32
2023-02-09T07:06:07.167Z,-2.35
2023-02-09T07:07:09.027Z,-2.36
2023-02-09T07:08:10.996Z,-2.32
2023-02-09T07:09:12.929Z,-2.26
2023-02-09T07:10:15.971Z,-2.23
2023-02-09T07:11:18.714Z,-2.24
2023-02-09T07:12:20.545Z,-2.25
2023-02-09T07:13:22.398Z,-2.29
2023-02-09T07:14:24.328Z,-2.30
2023-02-09T07:15:26.188Z,-2.30
2023-02-09T07:16:28.228Z,-2.32
2023-02-09T07:17:30.951Z,-2.30
2023-02-09T07:18:32.915Z,-2.36
2023-02-09T07:19:34.825Z,-2.35
2023-02-09T07:20:36.640Z,-2.31
2023-02-09T07:21:38.654Z,-2.32
2023-02-09T07:22:41.140Z,-2.31
2023-02-09T07:23:43.101Z,-2.31
2023-02-09T07:24:44.914Z,-2.28
2023-02-09T07:25:46.834Z,-2.30
2023-02-09T07:26:48.812Z,-2.31
2023-02-09T07:27:50.793Z,-2.31
2023-02-09T07:28:52.772Z,-2.31
2023-02-09T07:29:54.620Z,-2.28
2023-02-09T07:31:01.765Z,-2.34
2023-02-09T07:32:05.841Z,-2.33
2023-02-09T07:33:08.132Z,-2.32
2023-02-09T07:34:10.254Z,-2.27
2023-02-09T07:35:12.239Z,-2.26
2023-02-09T07:36:15.022Z,-2.31
2023-02-09T07:37:17.130Z,-2.32
2023-02-09T07:38:18.960Z,-2.33
2023-02-09T07:39:20.867Z,-2.28
2023-02-09T07:40:22.893Z,-2.24
2023-02-09T07:41:25.513Z,-2.21
2023-02-09T07:42:27.510Z,-2.15
2023-02-09T07:43:29.826Z,-2.16
2023-02-09T07:44:31.685Z,-2.21
2023-02-09T07:45:34.049Z,-2.25
2023-02-09T07:46:36.363Z,-2.23
2023-02-09T07:47:38.998Z,-2.18
2023-02-09T07:48:40.923Z,-2.16
2023-02-09T07:49:42.813Z,-2.15
2023-02-09T07:50:50.920Z,-2.10
2023-02-09T07:51:52.771Z,-2.05
2023-02-09T07:52:55.299Z,-2.05
2023-02-09T07:53:57.774Z,-2.05
2023-02-09T07:54:59.638Z,-2.02
2023-02-09T07:56:01.551Z,-2.01
2023-02-09T07:57:03.430Z,-1.97
2023-02-09T07:58:05.295Z,-1.97
2023-02-09T07:59:07.775Z,-1.91
2023-02-09T08:00:10.024Z,-1.88
2023-02-09T08:01:12.628Z,-1.90
2023-02-09T08:02:19.144Z,-1.89
2023-02-09T08:03:23.169Z,-1.88
2023-02-09T08:04:25.015Z,-1.85
2023-02-09T08:05:30.914Z,-1.85
2023-02-09T08:06:43.483Z,-1.82
2023-02-09T08:07:46.050Z,-1.77
2023-02-09T08:08:48.904Z,-1.72
2023-02-09T08:09:50.794Z,-1.70
2023-02-09T08:10:53.339Z,-1.67
2023-02-09T08:12:02.436Z,-1.69
2023-02-09T08:13:04.482Z,-1.64
2023-02-09T08:14:11.748Z,-1.62
2023-02-09T08:15:14.627Z,-1.63
2023-02-09T08:16:18.130Z,-1.61
2023-02-09T08:17:20.773Z,-1.57
2023-02-09T08:18:24.704Z,-1.57
2023-02-09T08:19:26.618Z,-1.53
2023-02-09T08:20:30.266Z,-1.51
2023-02-09T08:21:34.229Z,-1.49
2023-02-09T08:22:39.215Z,-1.45
2023-02-09T08:23:42.735Z,-1.40
2023-02-09T08:24:44.823Z,-1.32
2023-02-09T08:25:49.001Z,-1.25
2023-02-09T08:26:50.923Z,-1.14
2023-02-09T08:27:53.485Z,-1.06
2023-02-09T08:28:56.788Z,-1.00
2023-02-09T08:30:00.612Z,-0.91
2023-02-09T08:31:02.580Z,-0.81
2023-02-09T08:32:04.551Z,-0.70
2023-02-09T08:33:06.456Z,-0.64
2023-02-09T08:34:08.436Z,-0.53
2023-02-09T08:35:10.660Z,-0.45
2023-02-09T08:36:12.868Z,-0.41
2023-02-09T08:37:14.694Z,-0.42
2023-02-09T08:38:16.585Z,-0.36
2023-02-09T08:39:18.550Z,-0.28
2023-02-09T08:40:20.425Z,-0.21
2023-02-09T08:41:22.254Z,-0.13
2023-02-09T08:42:24.091Z,-0.12
2023-02-09T08:43:25.939Z,-0.13
2023-02-09T08:44:27.835Z,-0.11
2023-02-09T08:45:29.928Z,-0.04
2023-02-09T08:46:31.878Z,0.01
2023-02-09T08:47:33.960Z,0.09
2023-02-09T08:48:38.557Z,0.14
2023-02-09T08:49:40.632Z,0.22
2023-02-09T08:50:42.623Z,0.33
2023-02-09T08:51:44.434Z,0.41
2023-02-09T08:52:46.468Z,0.48
2023-02-09T08:53:52.638Z,0.55
2023-02-09T08:54:54.667Z,0.60
2023-02-09T08:55:57.174Z,0.64
2023-02-09T08:56:59.576Z,0.62
2023-02-09T08:58:01.438Z,0.69
2023-02-09T08:59:03.344Z,0.71
2023-02-09T09:00:06.272Z,0.62
2023-02-09T09:01:08.375Z,0.67
2023-02-09T09:02:10.259Z,0.78
2023-02-09T09:03:12.097Z,0.84
2023-02-09T09:04:14.358Z,0.92
2023-02-09T09:05:16.209Z,0.98
2023-02-09T09:06:18.315Z,1.00
2023-02-09T09:07:20.206Z,1.07
2023-02-09T09:08:22.117Z,1.15
2023-02-09T09:09:23.999Z,1.23
2023-02-09T09:10:25.814Z,1.31
2023-02-09T09:11:28.474Z,1.30
2023-02-09T09:12:30.531Z,1.28
2023-02-09T09:13:32.623Z,1.31
2023-02-09T09:14:34.662Z,1.39
2023-02-09T09:15:37.041Z,1.46
2023-02-09T09:16:39.060Z,1.51
2023-02-09T09:17:40.901Z,1.54
2023-02-09T09:18:42.810Z,1.60
2023-02-09T09:19:44.662Z,1.53
2023-02-09T09:20:46.507Z,1.55
2023-02-09T09:21:48.434Z,1.60
2023-02-09T09:22:50.386Z,1.69
2023-02-09T09:23:52.319Z,1.78
2023-02-09T09:24:55.592Z,1.86
2023-02-09T09:26:01.971Z,1.95
2023-02-09T09:27:03.918Z,1.93
2023-02-09T09:28:06.331Z,1.99
2023-02-09T09:29:09.129Z,1.98
2023-02-09T09:30:11.360Z,2.06
2023-02-09T09:31:15.162Z,2.15
2023-02-09T09:32:17.208Z,2.26
2023-02-09T09:33:19.162Z,2.31
2023-02-09T09:34:20.970Z,2.41
2023-02-09T09:35:22.867Z,2.45
2023-02-09T09:36:24.780Z,2.50
2023-02-09T09:37:26.967Z,2.48
2023-02-09T09:38:28.845Z,2.53
2023-02-09T09:39:30.750Z,2.61
2023-02-09T09:40:35.210Z,2.69
2023-02-09T09:41:38.596Z,2.76
2023-02-09T09:42:47.386Z,2.75
2023-02-09T09:43:49.628Z,2.77
2023-02-09T09:44:51.913Z,2.78
2023-02-09T09:45:53.849Z,2.86
2023-02-09T09:47:01.415Z,2.91
2023-02-09T09:48:03.403Z,3.00
2023-02-09T09:49:05.430Z,3.04
2023-02-09T09:50:27.560Z,3.03
2023-02-09T09:51:38.519Z,3.09
2023-02-09T09:52:41.998Z,3.10
2023-02-09T09:53:45.989Z,3.16
2023-02-09T09:54:47.898Z,3.21
2023-02-09T09:55:55.424Z,3.32
2023-02-09T09:56:57.389Z,3.40
2023-02-09T09:58:01.198Z,3.40
2023-02-09T09:59:03.190Z,3.46
2023-02-09T10:00:11.331Z,3.48
2023-02-09T10:01:14.598Z,3.55
2023-02-09T10:02:24.038Z,3.64
2023-02-09T10:03:26.336Z,3.62
2023-02-09T10:04:28.821Z,3.66
2023-02-09T10:05:35.944Z,3.63
2023-02-09T10:06:40.834Z,3.63
2023-02-09T10:07:45.466Z,3.62
2023-02-09T10:08:47.302Z,3.72
2023-02-09T10:09:52.274Z,3.83
2023-02-09T10:11:00.251Z,3.88
2023-02-09T10:12:14.334Z,3.90
2023-02-09T10:13:21.211Z,3.98
2023-02-09T10:14:23.777Z,4.03
2023-02-09T10:15:30.944Z,4.15
2023-02-09T10:16:38.399Z,4.29
2023-02-09T10:17:40.371Z,4.32
2023-02-09T10:18:42.901Z,4.38
2023-02-09T10:19:59.155Z,4.32
2023-02-09T10:21:05.395Z,4.17
2023-02-09T10:22:12.047Z,4.19
2023-02-09T10:23:15.996Z,4.32
2023-02-09T10:24:22.713Z,4.46
2023-02-09T10:25:38.262Z,4.58
2023-02-09T10:26:41.156Z,4.64
2023-02-09T10:27:46.717Z,4.66
2023-02-09T10:28:51.937Z,4.73
2023-02-09T10:29:53.861Z,4.77
2023-02-09T10:30:58.096Z,4.76
2023-02-09T10:31:59.961Z,4.81
2023-02-09T10:33:02.239Z,4.90
2023-02-09T10:34:10.278Z,4.91
2023-02-09T10:35:29.507Z,4.98
2023-02-09T10:36:33.744Z,5.00
2023-02-09T10:37:40.043Z,5.01
2023-02-09T10:38:41.970Z,5.11
2023-02-09T10:39:44.619Z,5.08
2023-02-09T10:40:47.857Z,5.10
2023-02-09T10:41:51.950Z,5.12
2023-02-09T10:42:53.869Z,5.22
2023-02-09T10:43:55.744Z,5.29
2023-02-09T10:45:03.680Z,5.30
2023-02-09T10:46:16.466Z,5.26
2023-02-09T10:47:21.360Z,5.29
2023-02-09T10:48:25.237Z,5.36
2023-02-09T10:49:51.010Z,5.44
2023-02-09T10:50:54.313Z,5.59
2023-02-09T10:52:05.798Z,5.58
2023-02-09T10:53:27.954Z,5.59
2023-02-09T10:54:29.792Z,5.67
2023-02-09T10:55:39.681Z,5.69
2023-02-09T10:56:41.579Z,5.75
2023-02-09T10:57:43.502Z,5.80
2023-02-09T10:59:00.153Z,5.87
2023-02-09T11:00:22.178Z,6.01
2023-02-09T11:01:26.116Z,6.11
2023-02-09T11:02:34.605Z,6.13
2023-02-09T11:03:37.100Z,6.15
2023-02-09T11:04:40.174Z,6.16
2023-02-09T11:05:42.093Z,6.28
2023-02-09T11:06:50.639Z,6.31
2023-02-09T11:07:58.309Z,6.32
2023-02-09T11:09:03.470Z,6.29
2023-02-09T11:10:13.272Z,6.29
2023-02-09T11:11:35.703Z,6.36
2023-02-09T11:12:37.593Z,6.45
2023-02-09T11:13:40.972Z,6.46
2023-02-09T11:14:43.569Z,6.50
2023-02-09T11:15:48.548Z,6.53
2023-02-09T11:16:56.084Z,6.50
2023-02-09T11:18:10.948Z,6.57
2023-02-09T11:19:12.743Z,6.68
2023-02-09T11:20:22.232Z,6.75
2023-02-09T11:21:30.802Z,6.86
2023-02-09T11:22:54.069Z,6.95
2023-02-09T11:24:07.203Z,7.01
2023-02-09T11:25:21.380Z,6.99
2023-02-09T11:26:23.175Z,7.11
2023-02-09T11:27:32.146Z,7.14
2023-02-09T11:28:39.156Z,7.16
2023-02-09T11:29:50.661Z,7.24
2023-02-09T11:31:04.975Z,7.32
2023-02-09T11:32:06.922Z,7.37
2023-02-09T11:33:34.351Z,7.38
2023-02-09T11:34:42.090Z,7.45
2023-02-09T11:35:51.769Z,7.47
2023-02-09T11:36:53.618Z,7.62
2023-02-09T11:38:14.275Z,7.66
2023-02-09T11:39:16.202Z,7.56
2023-02-09T11:40:22.892Z,7.50
2023-02-09T11:41:49.861Z,7.56
2023-02-09T11:43:10.271Z,7.75
2023-02-09T11:44:17.421Z,7.81
2023-02-09T11:45:21.603Z,7.85
2023-02-09T11:46:24.786Z,7.81
2023-02-09T11:47:30.615Z,7.84
2023-02-09T11:48:36.718Z,7.97
2023-02-09T11:49:46.642Z,8.12
2023-02-09T11:51:00.744Z,8.28
2023-02-09T11:52:04.919Z,8.41
2023-02-09T11:53:14.250Z,8.42
2023-02-09T11:54:21.297Z,8.56
2023-02-09T11:55:29.184Z,8.67
2023-02-09T11:56:35.379Z,8.74
2023-02-09T11:57:42.550Z,8.79
2023-02-09T11:59:07.650Z,8.82
2023-02-09T12:00:17.121Z,8.67
2023-02-09T12:01:30.172Z,8.78
2023-02-09T12:02:32.008Z,8.80
2023-02-09T12:03:33.897Z,8.96
2023-02-09T12:04:55.906Z,9.05
2023-02-09T12:05:57.871Z,9.25
2023-02-09T12:07:05.834Z,9.18
2023-02-09T12:08:07.652Z,9.16
2023-02-09T12:09:20.419Z,9.24
2023-02-09T12:10:28.273Z,9.33
2023-02-09T12:11:37.052Z,9.33
2023-02-09T12:12:50.264Z,9.37
2023-02-09T12:13:54.981Z,9.33
2023-02-09T12:15:01.391Z,9.17
2023-02-09T12:16:08.016Z,9.31
2023-02-09T12:17:20.836Z,9.35
2023-02-09T12:18:30.564Z,9.50
2023-02-09T12:19:36.928Z,9.61
2023-02-09T12:20:38.780Z,9.72
2023-02-09T12:21:42.099Z,9.69
2023-02-09T12:22:48.843Z,9.65
2023-02-09T12:23:50.764Z,9.69
2023-02-09T12:25:11.214Z,9.74
2023-02-09T12:26:13.039Z,9.45
2023-02-09T12:27:27.560Z,9.48
2023-02-09T12:28:32.528Z,9.69
2023-02-09T12:29:41.769Z,9.76
2023-02-09T12:30:43.758Z,9.88
2023-02-09T12:32:03.826Z,9.91
2023-02-09T12:33:23.972Z,9.90
2023-02-09T12:34:38.187Z,10.00
2023-02-09T12:35:40.902Z,10.08
2023-02-09T12:37:01.740Z,10.10
2023-02-09T12:38:09.211Z,10.01
2023-02-09T12:39:25.400Z,9.90
2023-02-09T12:40:35.433Z,9.90
2023-02-09T12:41:42.975Z,9.95
2023-02-09T12:43:05.073Z,9.88
2023-02-09T12:44:09.975Z,9.90
2023-02-09T12:45:32.211Z,9.90
2023-02-09T12:46:37.178Z,9.79
2023-02-09T12:47:46.867Z,9.64
2023-02-09T12:48:51.583Z,9.59
2023-02-09T12:50:02.147Z,9.69
2023-02-09T12:51:04.136Z,9.82
2023-02-09T12:52:09.624Z,9.74
2023-02-09T12:53:23.781Z,9.71
2023-02-09T12:54:43.799Z,9.49
2023-02-09T12:56:23.434Z,9.50
2023-02-09T12:57:26.406Z,9.68
2023-02-09T12:58:54.677Z,9.82
2023-02-09T12:59:56.712Z,9.84
2023-02-09T13:00:58.698Z,9.79
2023-02-09T13:02:11.340Z,9.67
2023-02-09T13:03:15.482Z,9.45
2023-02-09T13:04:17.452Z,9.44
2023-02-09T13:05:22.462Z,9.45
2023-02-09T13:06:33.239Z,9.39
2023-02-09T13:07:41.838Z,9.46
2023-02-09T13:08:48.996Z,9.53
2023-02-09T13:09:52.107Z,9.51
2023-02-09T13:10:54.030Z,9.53
2023-02-09T13:12:15.047Z,9.57
2023-02-09T13:13:29.050Z,9.54
2023-02-09T13:14:31.038Z,9.59
2023-02-09T13:15:56.200Z,9.59
2023-02-09T13:17:04.208Z,9.50
2023-02-09T13:18:20.732Z,9.57
2023-02-09T13:19:47.674Z,9.66
2023-02-09T13:21:08.847Z,9.80
2023-02-09T13:22:22.569Z,9.83
2023-02-09T13:23:28.164Z,9.75
2023-02-09T13:24:38.187Z,9.61
2023-02-09T13:25:40.445Z,9.60
2023-02-09T13:26:58.487Z,9.57
2023-02-09T13:28:20.256Z,9.59
2023-02-09T13:29:30.116Z,9.51
2023-02-09T13:30:32.908Z,9.38
2023-02-09T13:31:35.186Z,9.46
2023-02-09T13:32:57.237Z,9.48
2023-02-09T13:34:02.137Z,9.49
2023-02-09T13:35:04.233Z,9.49
2023-02-09T13:36:24.100Z,9.45
2023-02-09T13:37:45.522Z,9.39
2023-02-09T13:38:47.474Z,9.49
2023-02-09T13:39:58.097Z,9.52
2023-02-09T13:41:00.125Z,9.54
2023-02-09T13:42:01.977Z,9.41
2023-02-09T13:43:13.003Z,9.36
2023-02-09T13:44:22.682Z,9.38
2023-02-09T13:45:26.971Z,9.35
2023-02-09T13:46:32.498Z,9.35
2023-02-09T13:47:34.580Z,9.39
2023-02-09T13:48:38.668Z,9.44
2023-02-09T13:49:40.990Z,9.30
2023-02-09T13:50:47.006Z,9.20
2023-02-09T13:52:09.753Z,9.18
2023-02-09T13:53:11.684Z,8.97
2023-02-09T13:54:20.577Z,8.94
2023-02-09T13:55:23.699Z,9.00
2023-02-09T13:56:26.328Z,8.89
2023-02-09T13:57:38.612Z,8.78
2023-02-09T13:58:40.636Z,8.89
2023-02-09T13:59:42.959Z,9.02
2023-02-09T14:00:47.892Z,9.13
2023-02-09T14:01:49.909Z,9.23
2023-02-09T14:02:53.999Z,9.23
2023-02-09T14:04:05.364Z,9.33
2023-02-09T14:05:08.295Z,9.53
2023-02-09T14:06:39.341Z,9.64